Portada
METAR-TAF:

METAR-TAF

Aeroports :

Joensuu, Finlàndia

latitud: 62-40N, longitud: 029-38E, altitud: 119 m

Observació

L'informe es va fer fa 15 minuts, a les 04:20 UTC
Vent 17 kt del Oest/Sud-Oest amb ràfegues de 27 kt, variant entre Sud-Oest i Oest/Nord-Oest
Temperatura 1°C
Humitat 93%
Pressió 964 hPa
Visibilitat: 9000 m
Cel cobert a una alçada de 700 ft
neu

METAR: EFJO 230420Z AUTO 25017G27KT 220V290 9000 -SN OVC007 01/00 Q0964

Hora: 06:35 (04:35 UTC)

Pronòstic

L'informe es va fer fa 17 hores i 5 minuts, a les 11:30 UTC
Pronòstic vàlid del 22 a les 12 UTC al 22 a les 16 UTC
Vent 13 kt del Sud
Visibilitat: 9000 m
Cel cobert a una alçada de 1000 ft
neu, pluja
Temporalment
l' 22 a les 12 UTC al 22 a les 16 UTC
Vent 15 kt del Sud amb ràfegues de 30 kt
Visibilitat: 2500 m
Cel ennuvolat a una alçada de 700 ft
neu, pluja

TAF: EFJO 221130Z 2212/2216 18013KT 9000 -SNRA OVC010 TEMPO 2212/2216 18015G30KT 2500 SNRA BKN007

Observacions i pronòstics meteorològics de més de 4000 aeroports (METAR i TAF).

Les estacions disponibles són els punts grocs i vermells al mapa.

Posi el ratolí al punt desitjat per veure el nom de l'estació.

Feu clic per veure les observacions i els pronòstics meteorològics.

Per canviar el mapa: feu clic els botons verds amb una creu de color negre per apropar; al botó verd amb un guió per allunyar la imatge; o en les fletxes verdes per a mapes adjacents.


METAR-TAF: